sensor_id;sensor_type;location;lat;lon;timestamp;P1;durP1;ratioP1;P2;durP2;ratioP2
33190;SDS011;19554;42.652;23.364;2022-08-19T00:00:05;7.72;;;5.85;;
33190;SDS011;19554;42.652;23.364;2022-08-19T00:02:33;8.20;;;5.70;;
33190;SDS011;19554;42.652;23.364;2022-08-19T00:04:59;9.27;;;5.82;;
33190;SDS011;19554;42.652;23.364;2022-08-19T00:07:24;9.15;;;6.10;;
33190;SDS011;19554;42.652;23.364;2022-08-19T00:09:49;8.80;;;5.97;;
33190;SDS011;19554;42.652;23.364;2022-08-19T00:12:15;9.27;;;5.80;;
33190;SDS011;19554;42.652;23.364;2022-08-19T00:14:41;10.80;;;5.85;;
33190;SDS011;19554;42.652;23.364;2022-08-19T00:17:06;7.57;;;5.57;;
33190;SDS011;19554;42.652;23.364;2022-08-19T00:19:33;10.25;;;5.85;;
33190;SDS011;19554;42.652;23.364;2022-08-19T00:22:00;9.77;;;5.68;;
33190;SDS011;19554;42.652;23.364;2022-08-19T00:24:27;8.07;;;5.80;;
33190;SDS011;19554;42.652;23.364;2022-08-19T00:26:54;9.98;;;5.78;;
33190;SDS011;19554;42.652;23.364;2022-08-19T00:29:21;8.07;;;6.05;;
33190;SDS011;19554;42.652;23.364;2022-08-19T00:31:47;9.68;;;5.45;;
33190;SDS011;19554;42.652;23.364;2022-08-19T00:34:14;12.38;;;6.30;;
33190;SDS011;19554;42.652;23.364;2022-08-19T00:36:40;8.63;;;6.63;;
33190;SDS011;19554;42.652;23.364;2022-08-19T00:39:06;7.07;;;5.93;;
33190;SDS011;19554;42.652;23.364;2022-08-19T00:41:33;7.82;;;6.15;;
33190;SDS011;19554;42.652;23.364;2022-08-19T00:44:07;9.10;;;5.95;;
33190;SDS011;19554;42.652;23.364;2022-08-19T00:46:34;13.95;;;6.07;;
33190;SDS011;19554;42.652;23.364;2022-08-19T00:49:02;9.10;;;6.13;;
33190;SDS011;19554;42.652;23.364;2022-08-19T00:51:39;11.95;;;6.20;;
33190;SDS011;19554;42.652;23.364;2022-08-19T00:54:07;8.02;;;6.05;;
33190;SDS011;19554;42.652;23.364;2022-08-19T00:56:34;7.97;;;6.60;;
33190;SDS011;19554;42.652;23.364;2022-08-19T00:59:00;8.35;;;5.72;;
33190;SDS011;19554;42.652;23.364;2022-08-19T01:01:27;7.25;;;5.32;;
33190;SDS011;19554;42.652;23.364;2022-08-19T01:03:53;9.02;;;6.05;;
33190;SDS011;19554;42.652;23.364;2022-08-19T01:06:18;9.13;;;6.07;;
33190;SDS011;19554;42.652;23.364;2022-08-19T01:08:44;9.40;;;6.10;;
33190;SDS011;19554;42.652;23.364;2022-08-19T01:11:09;11.43;;;6.38;;
33190;SDS011;19554;42.652;23.364;2022-08-19T01:13:37;9.70;;;5.65;;
33190;SDS011;19554;42.652;23.364;2022-08-19T01:16:06;6.32;;;5.72;;
33190;SDS011;19554;42.652;23.364;2022-08-19T01:18:38;8.10;;;6.13;;
33190;SDS011;19554;42.652;23.364;2022-08-19T01:23:59;7.95;;;5.80;;
33190;SDS011;19554;42.652;23.364;2022-08-19T01:26:25;11.52;;;6.03;;
33190;SDS011;19554;42.652;23.364;2022-08-19T01:28:52;9.52;;;6.78;;
33190;SDS011;19554;42.652;23.364;2022-08-19T01:31:21;6.18;;;5.38;;
33190;SDS011;19554;42.652;23.364;2022-08-19T01:33:51;7.57;;;5.65;;
33190;SDS011;19554;42.652;23.364;2022-08-19T01:38:55;9.10;;;6.32;;
33190;SDS011;19554;42.652;23.364;2022-08-19T01:41:21;7.32;;;6.15;;
33190;SDS011;19554;42.652;23.364;2022-08-19T01:43:48;11.50;;;6.63;;
33190;SDS011;19554;42.652;23.364;2022-08-19T01:46:14;8.38;;;6.15;;
33190;SDS011;19554;42.652;23.364;2022-08-19T01:48:41;10.43;;;6.07;;
33190;SDS011;19554;42.652;23.364;2022-08-19T01:51:08;6.45;;;5.78;;
33190;SDS011;19554;42.652;23.364;2022-08-19T01:53:34;10.50;;;5.97;;
33190;SDS011;19554;42.652;23.364;2022-08-19T01:56:00;12.63;;;5.82;;
33190;SDS011;19554;42.652;23.364;2022-08-19T01:58:28;6.63;;;5.70;;
33190;SDS011;19554;42.652;23.364;2022-08-19T02:01:00;14.23;;;6.25;;
33190;SDS011;19554;42.652;23.364;2022-08-19T02:03:26;10.25;;;6.13;;
33190;SDS011;19554;42.652;23.364;2022-08-19T02:05:57;8.60;;;5.72;;
33190;SDS011;19554;42.652;23.364;2022-08-19T02:08:25;10.38;;;6.43;;
33190;SDS011;19554;42.652;23.364;2022-08-19T02:10:51;7.68;;;6.05;;
33190;SDS011;19554;42.652;23.364;2022-08-19T02:13:17;9.27;;;6.50;;
33190;SDS011;19554;42.652;23.364;2022-08-19T02:15:43;10.65;;;5.97;;
33190;SDS011;19554;42.652;23.364;2022-08-19T02:18:08;11.73;;;6.65;;
33190;SDS011;19554;42.652;23.364;2022-08-19T02:20:34;10.40;;;6.53;;
33190;SDS011;19554;42.652;23.364;2022-08-19T02:23:01;9.05;;;6.53;;
33190;SDS011;19554;42.652;23.364;2022-08-19T02:25:27;14.63;;;6.57;;
33190;SDS011;19554;42.652;23.364;2022-08-19T02:27:53;10.50;;;6.28;;
33190;SDS011;19554;42.652;23.364;2022-08-19T02:30:19;9.75;;;6.20;;
33190;SDS011;19554;42.652;23.364;2022-08-19T02:32:45;9.00;;;6.00;;
33190;SDS011;19554;42.652;23.364;2022-08-19T02:35:11;7.47;;;6.30;;
33190;SDS011;19554;42.652;23.364;2022-08-19T02:37:38;8.27;;;6.03;;
33190;SDS011;19554;42.652;23.364;2022-08-19T02:40:23;10.52;;;6.55;;
33190;SDS011;19554;42.652;23.364;2022-08-19T02:42:49;11.05;;;6.60;;
33190;SDS011;19554;42.652;23.364;2022-08-19T02:45:14;11.07;;;6.60;;
33190;SDS011;19554;42.652;23.364;2022-08-19T02:47:40;9.32;;;6.22;;
33190;SDS011;19554;42.652;23.364;2022-08-19T02:50:06;8.73;;;5.70;;
33190;SDS011;19554;42.652;23.364;2022-08-19T02:52:32;8.82;;;6.60;;
33190;SDS011;19554;42.652;23.364;2022-08-19T02:54:59;9.88;;;6.57;;
33190;SDS011;19554;42.652;23.364;2022-08-19T02:57:25;8.50;;;5.95;;
33190;SDS011;19554;42.652;23.364;2022-08-19T02:59:51;10.20;;;7.50;;
33190;SDS011;19554;42.652;23.364;2022-08-19T03:02:17;8.60;;;5.80;;
33190;SDS011;19554;42.652;23.364;2022-08-19T03:04:42;8.60;;;6.13;;
33190;SDS011;19554;42.652;23.364;2022-08-19T03:07:08;7.63;;;5.68;;
33190;SDS011;19554;42.652;23.364;2022-08-19T03:12:04;14.80;;;7.05;;
33190;SDS011;19554;42.652;23.364;2022-08-19T03:14:30;9.63;;;7.25;;
33190;SDS011;19554;42.652;23.364;2022-08-19T03:16:56;15.30;;;7.80;;
33190;SDS011;19554;42.652;23.364;2022-08-19T03:19:22;11.65;;;7.22;;
33190;SDS011;19554;42.652;23.364;2022-08-19T03:21:48;10.05;;;6.82;;
33190;SDS011;19554;42.652;23.364;2022-08-19T03:24:14;7.10;;;6.22;;
33190;SDS011;19554;42.652;23.364;2022-08-19T03:26:42;9.27;;;6.43;;
33190;SDS011;19554;42.652;23.364;2022-08-19T03:29:10;8.88;;;6.32;;
33190;SDS011;19554;42.652;23.364;2022-08-19T03:31:36;10.65;;;6.82;;
33190;SDS011;19554;42.652;23.364;2022-08-19T03:34:03;11.90;;;7.32;;
33190;SDS011;19554;42.652;23.364;2022-08-19T03:36:28;7.63;;;6.20;;
33190;SDS011;19554;42.652;23.364;2022-08-19T03:38:58;18.40;;;6.88;;
33190;SDS011;19554;42.652;23.364;2022-08-19T03:41:32;10.43;;;7.15;;
33190;SDS011;19554;42.652;23.364;2022-08-19T03:44:01;11.15;;;7.50;;
33190;SDS011;19554;42.652;23.364;2022-08-19T03:46:28;14.40;;;7.13;;
33190;SDS011;19554;42.652;23.364;2022-08-19T03:48:57;14.02;;;7.70;;
33190;SDS011;19554;42.652;23.364;2022-08-19T03:53:52;7.35;;;6.47;;
33190;SDS011;19554;42.652;23.364;2022-08-19T03:56:19;12.63;;;7.10;;
33190;SDS011;19554;42.652;23.364;2022-08-19T03:58:45;11.18;;;6.93;;
33190;SDS011;19554;42.652;23.364;2022-08-19T04:01:11;10.30;;;7.00;;
33190;SDS011;19554;42.652;23.364;2022-08-19T04:03:46;17.25;;;7.68;;
33190;SDS011;19554;42.652;23.364;2022-08-19T04:06:17;13.55;;;7.18;;
33190;SDS011;19554;42.652;23.364;2022-08-19T04:08:52;11.55;;;6.93;;
33190;SDS011;19554;42.652;23.364;2022-08-19T04:11:24;13.13;;;6.25;;
33190;SDS011;19554;42.652;23.364;2022-08-19T04:13:52;14.02;;;7.60;;
33190;SDS011;19554;42.652;23.364;2022-08-19T04:16:19;16.48;;;7.55;;
33190;SDS011;19554;42.652;23.364;2022-08-19T04:18:46;13.82;;;7.03;;
33190;SDS011;19554;42.652;23.364;2022-08-19T04:21:21;15.63;;;6.55;;
33190;SDS011;19554;42.652;23.364;2022-08-19T04:23:48;14.50;;;6.68;;
33190;SDS011;19554;42.652;23.364;2022-08-19T04:26:18;17.25;;;7.00;;
33190;SDS011;19554;42.652;23.364;2022-08-19T04:28:46;17.52;;;7.53;;
33190;SDS011;19554;42.652;23.364;2022-08-19T04:31:16;11.75;;;6.88;;
33190;SDS011;19554;42.652;23.364;2022-08-19T04:33:51;12.27;;;6.80;;
33190;SDS011;19554;42.652;23.364;2022-08-19T04:36:20;13.15;;;6.38;;
33190;SDS011;19554;42.652;23.364;2022-08-19T04:38:47;13.27;;;6.95;;
33190;SDS011;19554;42.652;23.364;2022-08-19T04:41:14;16.30;;;7.78;;
33190;SDS011;19554;42.652;23.364;2022-08-19T04:43:58;21.70;;;7.20;;
33190;SDS011;19554;42.652;23.364;2022-08-19T04:46:23;15.07;;;7.20;;
33190;SDS011;19554;42.652;23.364;2022-08-19T04:48:49;12.90;;;6.47;;
33190;SDS011;19554;42.652;23.364;2022-08-19T04:51:14;13.85;;;7.28;;
33190;SDS011;19554;42.652;23.364;2022-08-19T04:53:41;17.15;;;7.35;;
33190;SDS011;19554;42.652;23.364;2022-08-19T04:56:11;19.15;;;7.03;;
33190;SDS011;19554;42.652;23.364;2022-08-19T04:58:40;21.45;;;6.82;;
33190;SDS011;19554;42.652;23.364;2022-08-19T05:01:08;24.80;;;8.05;;
33190;SDS011;19554;42.652;23.364;2022-08-19T05:03:36;22.02;;;8.00;;
33190;SDS011;19554;42.652;23.364;2022-08-19T05:06:06;21.90;;;7.63;;
33190;SDS011;19554;42.652;23.364;2022-08-19T05:08:35;16.33;;;7.15;;
33190;SDS011;19554;42.652;23.364;2022-08-19T05:13:41;10.63;;;7.18;;
33190;SDS011;19554;42.652;23.364;2022-08-19T05:16:08;12.23;;;8.02;;
33190;SDS011;19554;42.652;23.364;2022-08-19T05:18:34;14.65;;;6.75;;
33190;SDS011;19554;42.652;23.364;2022-08-19T05:21:19;14.43;;;7.25;;
33190;SDS011;19554;42.652;23.364;2022-08-19T05:24:04;16.77;;;7.18;;
33190;SDS011;19554;42.652;23.364;2022-08-19T05:26:34;13.73;;;7.63;;
33190;SDS011;19554;42.652;23.364;2022-08-19T05:29:03;12.35;;;7.57;;
33190;SDS011;19554;42.652;23.364;2022-08-19T05:31:29;11.05;;;7.25;;
33190;SDS011;19554;42.652;23.364;2022-08-19T05:33:55;18.33;;;7.85;;
33190;SDS011;19554;42.652;23.364;2022-08-19T05:36:24;10.65;;;7.30;;
33190;SDS011;19554;42.652;23.364;2022-08-19T05:38:50;17.10;;;8.30;;
33190;SDS011;19554;42.652;23.364;2022-08-19T05:41:18;17.88;;;7.85;;
33190;SDS011;19554;42.652;23.364;2022-08-19T05:43:44;12.52;;;7.78;;
33190;SDS011;19554;42.652;23.364;2022-08-19T05:46:15;13.77;;;8.52;;
33190;SDS011;19554;42.652;23.364;2022-08-19T05:48:43;13.45;;;7.30;;
33190;SDS011;19554;42.652;23.364;2022-08-19T05:51:09;14.82;;;8.40;;
33190;SDS011;19554;42.652;23.364;2022-08-19T05:53:35;11.35;;;7.95;;
33190;SDS011;19554;42.652;23.364;2022-08-19T05:56:07;13.15;;;7.70;;
33190;SDS011;19554;42.652;23.364;2022-08-19T05:58:35;11.40;;;8.02;;
33190;SDS011;19554;42.652;23.364;2022-08-19T06:01:02;15.05;;;8.57;;
33190;SDS011;19554;42.652;23.364;2022-08-19T06:03:30;12.05;;;7.55;;
33190;SDS011;19554;42.652;23.364;2022-08-19T06:05:58;12.88;;;8.32;;
33190;SDS011;19554;42.652;23.364;2022-08-19T06:08:24;9.98;;;8.23;;
33190;SDS011;19554;42.652;23.364;2022-08-19T06:10:50;12.40;;;8.32;;
33190;SDS011;19554;42.652;23.364;2022-08-19T06:13:15;15.88;;;7.63;;
33190;SDS011;19554;42.652;23.364;2022-08-19T06:15:41;9.55;;;8.07;;
33190;SDS011;19554;42.652;23.364;2022-08-19T06:18:09;15.25;;;7.88;;
33190;SDS011;19554;42.652;23.364;2022-08-19T06:20:34;15.45;;;8.70;;
33190;SDS011;19554;42.652;23.364;2022-08-19T06:23:00;11.52;;;7.25;;
33190;SDS011;19554;42.652;23.364;2022-08-19T06:25:25;11.73;;;7.57;;
33190;SDS011;19554;42.652;23.364;2022-08-19T06:27:50;8.40;;;7.20;;
33190;SDS011;19554;42.652;23.364;2022-08-19T06:30:16;11.77;;;7.10;;
33190;SDS011;19554;42.652;23.364;2022-08-19T06:32:41;15.95;;;8.00;;
33190;SDS011;19554;42.652;23.364;2022-08-19T06:35:07;9.32;;;7.20;;
33190;SDS011;19554;42.652;23.364;2022-08-19T06:37:33;14.70;;;8.18;;
33190;SDS011;19554;42.652;23.364;2022-08-19T06:39:58;13.20;;;7.65;;
33190;SDS011;19554;42.652;23.364;2022-08-19T06:42:24;13.05;;;7.78;;
33190;SDS011;19554;42.652;23.364;2022-08-19T06:44:49;8.60;;;7.18;;
33190;SDS011;19554;42.652;23.364;2022-08-19T06:47:16;8.68;;;7.32;;
33190;SDS011;19554;42.652;23.364;2022-08-19T06:49:43;13.43;;;6.55;;
33190;SDS011;19554;42.652;23.364;2022-08-19T06:52:09;14.50;;;7.65;;
33190;SDS011;19554;42.652;23.364;2022-08-19T06:54:39;15.73;;;7.85;;
33190;SDS011;19554;42.652;23.364;2022-08-19T06:57:06;16.10;;;7.32;;
33190;SDS011;19554;42.652;23.364;2022-08-19T06:59:34;12.80;;;7.90;;
33190;SDS011;19554;42.652;23.364;2022-08-19T07:02:00;13.40;;;7.80;;
33190;SDS011;19554;42.652;23.364;2022-08-19T07:04:30;15.82;;;7.63;;
33190;SDS011;19554;42.652;23.364;2022-08-19T07:07:00;21.33;;;7.80;;
33190;SDS011;19554;42.652;23.364;2022-08-19T07:09:31;14.57;;;7.45;;
33190;SDS011;19554;42.652;23.364;2022-08-19T07:11:57;18.55;;;7.80;;
33190;SDS011;19554;42.652;23.364;2022-08-19T07:14:23;17.42;;;7.78;;
33190;SDS011;19554;42.652;23.364;2022-08-19T07:16:51;16.65;;;7.85;;
33190;SDS011;19554;42.652;23.364;2022-08-19T07:19:19;17.40;;;7.68;;
33190;SDS011;19554;42.652;23.364;2022-08-19T07:21:47;17.98;;;7.80;;
33190;SDS011;19554;42.652;23.364;2022-08-19T07:24:14;26.83;;;8.55;;
33190;SDS011;19554;42.652;23.364;2022-08-19T07:26:41;16.02;;;7.38;;
33190;SDS011;19554;42.652;23.364;2022-08-19T07:29:08;20.85;;;7.60;;
33190;SDS011;19554;42.652;23.364;2022-08-19T07:31:34;16.63;;;7.07;;
33190;SDS011;19554;42.652;23.364;2022-08-19T07:34:02;16.45;;;7.25;;
33190;SDS011;19554;42.652;23.364;2022-08-19T07:38:59;14.68;;;6.70;;
33190;SDS011;19554;42.652;23.364;2022-08-19T07:41:26;14.93;;;6.82;;
33190;SDS011;19554;42.652;23.364;2022-08-19T07:43:56;12.13;;;6.82;;
33190;SDS011;19554;42.652;23.364;2022-08-19T07:46:31;9.25;;;6.00;;
33190;SDS011;19554;42.652;23.364;2022-08-19T07:48:58;17.33;;;7.30;;
33190;SDS011;19554;42.652;23.364;2022-08-19T07:51:25;11.23;;;7.22;;
33190;SDS011;19554;42.652;23.364;2022-08-19T07:53:51;10.15;;;7.32;;
33190;SDS011;19554;42.652;23.364;2022-08-19T07:56:18;14.55;;;7.32;;
33190;SDS011;19554;42.652;23.364;2022-08-19T07:58:45;12.35;;;7.00;;
33190;SDS011;19554;42.652;23.364;2022-08-19T08:01:14;15.27;;;6.45;;
33190;SDS011;19554;42.652;23.364;2022-08-19T08:03:42;11.48;;;5.93;;
33190;SDS011;19554;42.652;23.364;2022-08-19T08:06:26;7.93;;;6.22;;
33190;SDS011;19554;42.652;23.364;2022-08-19T08:09:11;16.30;;;7.35;;
33190;SDS011;19554;42.652;23.364;2022-08-19T08:11:38;15.82;;;7.05;;
33190;SDS011;19554;42.652;23.364;2022-08-19T08:14:05;15.68;;;6.75;;
33190;SDS011;19554;42.652;23.364;2022-08-19T08:16:37;11.77;;;6.88;;
33190;SDS011;19554;42.652;23.364;2022-08-19T08:19:03;12.48;;;6.82;;
33190;SDS011;19554;42.652;23.364;2022-08-19T08:21:32;12.05;;;7.13;;
33190;SDS011;19554;42.652;23.364;2022-08-19T08:23:58;10.95;;;6.40;;
33190;SDS011;19554;42.652;23.364;2022-08-19T08:26:24;18.80;;;5.95;;
33190;SDS011;19554;42.652;23.364;2022-08-19T08:28:50;9.50;;;6.35;;
33190;SDS011;19554;42.652;23.364;2022-08-19T08:31:16;9.80;;;6.18;;
33190;SDS011;19554;42.652;23.364;2022-08-19T08:33:43;9.20;;;6.00;;
33190;SDS011;19554;42.652;23.364;2022-08-19T08:36:10;9.98;;;6.50;;
33190;SDS011;19554;42.652;23.364;2022-08-19T08:38:38;17.40;;;7.03;;
33190;SDS011;19554;42.652;23.364;2022-08-19T08:41:17;13.15;;;7.03;;
33190;SDS011;19554;42.652;23.364;2022-08-19T08:43:57;12.85;;;6.93;;
33190;SDS011;19554;42.652;23.364;2022-08-19T08:51:48;12.90;;;6.47;;
33190;SDS011;19554;42.652;23.364;2022-08-19T08:54:37;13.35;;;6.68;;
33190;SDS011;19554;42.652;23.364;2022-08-19T08:57:20;8.38;;;6.13;;
33190;SDS011;19554;42.652;23.364;2022-08-19T08:59:47;8.38;;;4.93;;
33190;SDS011;19554;42.652;23.364;2022-08-19T09:02:17;13.02;;;5.57;;
33190;SDS011;19554;42.652;23.364;2022-08-19T09:04:43;9.88;;;5.55;;
33190;SDS011;19554;42.652;23.364;2022-08-19T09:15:38;6.30;;;5.28;;
33190;SDS011;19554;42.652;23.364;2022-08-19T09:18:08;12.73;;;4.70;;
33190;SDS011;19554;42.652;23.364;2022-08-19T09:20:34;13.85;;;5.03;;
33190;SDS011;19554;42.652;23.364;2022-08-19T09:22:59;7.38;;;4.60;;
33190;SDS011;19554;42.652;23.364;2022-08-19T09:25:25;6.95;;;4.93;;
33190;SDS011;19554;42.652;23.364;2022-08-19T09:27:51;8.50;;;5.85;;
33190;SDS011;19554;42.652;23.364;2022-08-19T09:30:20;7.90;;;4.10;;
33190;SDS011;19554;42.652;23.364;2022-08-19T09:32:49;6.22;;;4.65;;
33190;SDS011;19554;42.652;23.364;2022-08-19T09:35:14;4.18;;;3.80;;
33190;SDS011;19554;42.652;23.364;2022-08-19T09:37:40;4.60;;;3.50;;
33190;SDS011;19554;42.652;23.364;2022-08-19T09:40:07;6.40;;;5.20;;
33190;SDS011;19554;42.652;23.364;2022-08-19T09:42:34;6.55;;;4.18;;
33190;SDS011;19554;42.652;23.364;2022-08-19T09:45:00;6.13;;;4.25;;
33190;SDS011;19554;42.652;23.364;2022-08-19T09:47:25;5.53;;;3.75;;
33190;SDS011;19554;42.652;23.364;2022-08-19T09:49:51;7.75;;;4.10;;
33190;SDS011;19554;42.652;23.364;2022-08-19T09:52:16;6.10;;;3.38;;
33190;SDS011;19554;42.652;23.364;2022-08-19T09:54:43;3.95;;;3.45;;
33190;SDS011;19554;42.652;23.364;2022-08-19T09:57:08;8.75;;;3.63;;
33190;SDS011;19554;42.652;23.364;2022-08-19T09:59:33;5.38;;;3.55;;
33190;SDS011;19554;42.652;23.364;2022-08-19T10:01:59;5.72;;;3.78;;
33190;SDS011;19554;42.652;23.364;2022-08-19T10:04:24;8.80;;;3.60;;
33190;SDS011;19554;42.652;23.364;2022-08-19T10:07:10;5.95;;;3.60;;
33190;SDS011;19554;42.652;23.364;2022-08-19T10:09:36;9.82;;;4.50;;
33190;SDS011;19554;42.652;23.364;2022-08-19T10:12:03;5.78;;;3.95;;
33190;SDS011;19554;42.652;23.364;2022-08-19T10:14:29;4.65;;;4.15;;
33190;SDS011;19554;42.652;23.364;2022-08-19T10:16:56;5.78;;;4.38;;
33190;SDS011;19554;42.652;23.364;2022-08-19T10:19:22;5.93;;;4.20;;
33190;SDS011;19554;42.652;23.364;2022-08-19T10:21:47;7.03;;;4.05;;
33190;SDS011;19554;42.652;23.364;2022-08-19T10:24:13;5.05;;;4.50;;
33190;SDS011;19554;42.652;23.364;2022-08-19T10:26:39;7.28;;;4.20;;
33190;SDS011;19554;42.652;23.364;2022-08-19T10:29:11;6.32;;;3.95;;
33190;SDS011;19554;42.652;23.364;2022-08-19T10:31:37;5.20;;;4.40;;
33190;SDS011;19554;42.652;23.364;2022-08-19T10:34:03;7.68;;;4.85;;
33190;SDS011;19554;42.652;23.364;2022-08-19T10:36:30;7.05;;;4.70;;
33190;SDS011;19554;42.652;23.364;2022-08-19T10:38:59;9.65;;;4.47;;
33190;SDS011;19554;42.652;23.364;2022-08-19T10:41:28;6.53;;;4.22;;
33190;SDS011;19554;42.652;23.364;2022-08-19T10:43:56;5.10;;;4.53;;
33190;SDS011;19554;42.652;23.364;2022-08-19T10:46:23;8.95;;;4.47;;
33190;SDS011;19554;42.652;23.364;2022-08-19T10:48:52;7.43;;;5.10;;
33190;SDS011;19554;42.652;23.364;2022-08-19T10:51:18;4.93;;;4.10;;
33190;SDS011;19554;42.652;23.364;2022-08-19T10:54:02;8.15;;;4.72;;
33190;SDS011;19554;42.652;23.364;2022-08-19T10:56:29;5.70;;;4.60;;
33190;SDS011;19554;42.652;23.364;2022-08-19T10:59:13;5.15;;;4.15;;
33190;SDS011;19554;42.652;23.364;2022-08-19T11:01:41;5.30;;;4.78;;
33190;SDS011;19554;42.652;23.364;2022-08-19T11:04:08;5.63;;;4.28;;
33190;SDS011;19554;42.652;23.364;2022-08-19T11:06:36;9.98;;;4.45;;
33190;SDS011;19554;42.652;23.364;2022-08-19T11:09:03;6.53;;;5.00;;
33190;SDS011;19554;42.652;23.364;2022-08-19T11:11:30;6.10;;;4.72;;
33190;SDS011;19554;42.652;23.364;2022-08-19T11:13:57;9.43;;;4.75;;
33190;SDS011;19554;42.652;23.364;2022-08-19T11:16:24;6.78;;;4.40;;
33190;SDS011;19554;42.652;23.364;2022-08-19T11:18:53;5.35;;;4.63;;
33190;SDS011;19554;42.652;23.364;2022-08-19T11:21:30;7.15;;;4.50;;
33190;SDS011;19554;42.652;23.364;2022-08-19T11:24:02;8.00;;;4.22;;
33190;SDS011;19554;42.652;23.364;2022-08-19T11:26:31;5.07;;;4.32;;
33190;SDS011;19554;42.652;23.364;2022-08-19T11:28:58;7.28;;;5.05;;
33190;SDS011;19554;42.652;23.364;2022-08-19T11:31:28;6.57;;;4.40;;
33190;SDS011;19554;42.652;23.364;2022-08-19T11:33:59;6.15;;;4.15;;
33190;SDS011;19554;42.652;23.364;2022-08-19T11:36:27;5.60;;;4.40;;
33190;SDS011;19554;42.652;23.364;2022-08-19T11:38:53;7.50;;;4.22;;
33190;SDS011;19554;42.652;23.364;2022-08-19T11:41:20;7.35;;;4.72;;
33190;SDS011;19554;42.652;23.364;2022-08-19T11:43:48;5.90;;;4.82;;
33190;SDS011;19554;42.652;23.364;2022-08-19T11:46:15;8.20;;;4.60;;
33190;SDS011;19554;42.652;23.364;2022-08-19T11:48:41;5.35;;;4.63;;
33190;SDS011;19554;42.652;23.364;2022-08-19T11:51:08;7.03;;;5.15;;
33190;SDS011;19554;42.652;23.364;2022-08-19T11:53:37;5.40;;;4.90;;
33190;SDS011;19554;42.652;23.364;2022-08-19T11:56:04;6.85;;;4.82;;
33190;SDS011;19554;42.652;23.364;2022-08-19T11:58:30;8.30;;;5.00;;
33190;SDS011;19554;42.652;23.364;2022-08-19T12:00:56;5.35;;;4.65;;
33190;SDS011;19554;42.652;23.364;2022-08-19T12:03:22;8.52;;;5.07;;
33190;SDS011;19554;42.652;23.364;2022-08-19T12:05:48;6.57;;;4.95;;
33190;SDS011;19554;42.652;23.364;2022-08-19T12:08:14;6.15;;;4.80;;
33190;SDS011;19554;42.652;23.364;2022-08-19T12:10:41;6.53;;;4.68;;
33190;SDS011;19554;42.652;23.364;2022-08-19T12:13:08;8.20;;;5.20;;
33190;SDS011;19554;42.652;23.364;2022-08-19T12:15:35;6.70;;;4.82;;
33190;SDS011;19554;42.652;23.364;2022-08-19T12:18:03;7.60;;;4.95;;
33190;SDS011;19554;42.652;23.364;2022-08-19T12:20:29;7.55;;;4.93;;
33190;SDS011;19554;42.652;23.364;2022-08-19T12:22:55;6.63;;;5.20;;
33190;SDS011;19554;42.652;23.364;2022-08-19T12:25:20;5.68;;;4.78;;
33190;SDS011;19554;42.652;23.364;2022-08-19T12:27:46;8.88;;;5.90;;
33190;SDS011;19554;42.652;23.364;2022-08-19T12:30:12;7.35;;;5.47;;
33190;SDS011;19554;42.652;23.364;2022-08-19T12:32:38;12.00;;;5.60;;
33190;SDS011;19554;42.652;23.364;2022-08-19T12:35:05;8.02;;;5.22;;
33190;SDS011;19554;42.652;23.364;2022-08-19T12:37:33;6.05;;;4.53;;
33190;SDS011;19554;42.652;23.364;2022-08-19T12:39:59;5.90;;;4.63;;
33190;SDS011;19554;42.652;23.364;2022-08-19T12:42:24;9.75;;;5.40;;
33190;SDS011;19554;42.652;23.364;2022-08-19T12:44:50;9.48;;;5.43;;
33190;SDS011;19554;42.652;23.364;2022-08-19T12:47:16;8.38;;;5.50;;
33190;SDS011;19554;42.652;23.364;2022-08-19T12:49:42;7.97;;;5.40;;
33190;SDS011;19554;42.652;23.364;2022-08-19T12:52:09;7.43;;;5.28;;
33190;SDS011;19554;42.652;23.364;2022-08-19T12:54:36;5.72;;;4.53;;
33190;SDS011;19554;42.652;23.364;2022-08-19T12:57:06;7.22;;;5.25;;
33190;SDS011;19554;42.652;23.364;2022-08-19T12:59:33;10.25;;;4.93;;
33190;SDS011;19554;42.652;23.364;2022-08-19T13:04:30;8.75;;;5.82;;
33190;SDS011;19554;42.652;23.364;2022-08-19T13:06:55;7.15;;;5.57;;
33190;SDS011;19554;42.652;23.364;2022-08-19T13:09:22;5.95;;;5.07;;
33190;SDS011;19554;42.652;23.364;2022-08-19T13:11:47;7.00;;;5.47;;
33190;SDS011;19554;42.652;23.364;2022-08-19T13:14:13;5.85;;;5.35;;
33190;SDS011;19554;42.652;23.364;2022-08-19T13:16:38;7.38;;;5.45;;
33190;SDS011;19554;42.652;23.364;2022-08-19T13:19:05;9.73;;;4.97;;
33190;SDS011;19554;42.652;23.364;2022-08-19T13:21:32;8.68;;;5.65;;
33190;SDS011;19554;42.652;23.364;2022-08-19T13:23:58;8.88;;;5.45;;
33190;SDS011;19554;42.652;23.364;2022-08-19T13:26:24;6.70;;;4.88;;
33190;SDS011;19554;42.652;23.364;2022-08-19T13:28:49;5.28;;;4.78;;
33190;SDS011;19554;42.652;23.364;2022-08-19T13:31:34;9.35;;;5.20;;
33190;SDS011;19554;42.652;23.364;2022-08-19T13:34:25;9.38;;;4.97;;
33190;SDS011;19554;42.652;23.364;2022-08-19T13:36:56;11.48;;;5.53;;
33190;SDS011;19554;42.652;23.364;2022-08-19T13:39:22;5.97;;;5.32;;
33190;SDS011;19554;42.652;23.364;2022-08-19T13:41:48;6.38;;;5.18;;
33190;SDS011;19554;42.652;23.364;2022-08-19T13:44:15;8.32;;;5.22;;
33190;SDS011;19554;42.652;23.364;2022-08-19T13:46:48;9.20;;;4.80;;
33190;SDS011;19554;42.652;23.364;2022-08-19T13:49:16;6.95;;;4.57;;
33190;SDS011;19554;42.652;23.364;2022-08-19T13:51:43;9.63;;;5.63;;
33190;SDS011;19554;42.652;23.364;2022-08-19T13:54:09;8.57;;;5.63;;
33190;SDS011;19554;42.652;23.364;2022-08-19T13:56:39;14.73;;;5.97;;
33190;SDS011;19554;42.652;23.364;2022-08-19T13:59:09;6.75;;;5.00;;
33190;SDS011;19554;42.652;23.364;2022-08-19T14:01:34;7.97;;;5.28;;
33190;SDS011;19554;42.652;23.364;2022-08-19T14:04:01;9.73;;;5.38;;
33190;SDS011;19554;42.652;23.364;2022-08-19T14:06:27;6.97;;;5.38;;
33190;SDS011;19554;42.652;23.364;2022-08-19T14:08:52;9.98;;;5.32;;
33190;SDS011;19554;42.652;23.364;2022-08-19T14:11:18;9.70;;;5.53;;
33190;SDS011;19554;42.652;23.364;2022-08-19T14:13:43;8.82;;;5.15;;
33190;SDS011;19554;42.652;23.364;2022-08-19T14:16:11;8.02;;;5.10;;
33190;SDS011;19554;42.652;23.364;2022-08-19T14:18:38;7.75;;;5.65;;
33190;SDS011;19554;42.652;23.364;2022-08-19T14:21:04;7.70;;;5.35;;
33190;SDS011;19554;42.652;23.364;2022-08-19T14:23:31;7.57;;;5.38;;
33190;SDS011;19554;42.652;23.364;2022-08-19T14:26:08;8.85;;;5.47;;
33190;SDS011;19554;42.652;23.364;2022-08-19T14:28:36;8.65;;;5.35;;
33190;SDS011;19554;42.652;23.364;2022-08-19T14:31:02;14.90;;;5.57;;
33190;SDS011;19554;42.652;23.364;2022-08-19T14:33:27;8.10;;;5.40;;
33190;SDS011;19554;42.652;23.364;2022-08-19T14:35:53;10.30;;;5.60;;
33190;SDS011;19554;42.652;23.364;2022-08-19T14:38:18;9.88;;;5.20;;
33190;SDS011;19554;42.652;23.364;2022-08-19T14:40:44;11.57;;;5.63;;
33190;SDS011;19554;42.652;23.364;2022-08-19T14:43:10;5.70;;;4.75;;
33190;SDS011;19554;42.652;23.364;2022-08-19T14:45:37;13.82;;;5.53;;
33190;SDS011;19554;42.652;23.364;2022-08-19T14:48:04;5.30;;;4.85;;
33190;SDS011;19554;42.652;23.364;2022-08-19T14:50:31;6.22;;;5.63;;
33190;SDS011;19554;42.652;23.364;2022-08-19T14:52:59;10.50;;;5.68;;
33190;SDS011;19554;42.652;23.364;2022-08-19T14:55:26;8.32;;;5.78;;
33190;SDS011;19554;42.652;23.364;2022-08-19T14:57:52;9.10;;;5.60;;
33190;SDS011;19554;42.652;23.364;2022-08-19T15:00:17;7.55;;;5.18;;
33190;SDS011;19554;42.652;23.364;2022-08-19T15:02:43;12.65;;;5.70;;